sensor_id;sensor_type;location;lat;lon;timestamp;P1;durP1;ratioP1;P2;durP2;ratioP2
25481;SDS011;13395;50.752;4.268;2022-12-19T00:01:38;29.45;;;13.43;;
25481;SDS011;13395;50.752;4.268;2022-12-19T00:04:05;31.50;;;12.50;;
25481;SDS011;13395;50.752;4.268;2022-12-19T00:06:32;24.77;;;12.02;;
25481;SDS011;13395;50.752;4.268;2022-12-19T00:08:58;23.95;;;12.02;;
25481;SDS011;13395;50.752;4.268;2022-12-19T00:11:24;24.23;;;12.77;;
25481;SDS011;13395;50.752;4.268;2022-12-19T00:13:51;25.10;;;12.00;;
25481;SDS011;13395;50.752;4.268;2022-12-19T00:16:18;26.17;;;11.80;;
25481;SDS011;13395;50.752;4.268;2022-12-19T00:18:47;24.67;;;11.57;;
25481;SDS011;13395;50.752;4.268;2022-12-19T00:21:15;26.48;;;13.00;;
25481;SDS011;13395;50.752;4.268;2022-12-19T00:23:42;27.92;;;11.55;;
25481;SDS011;13395;50.752;4.268;2022-12-19T00:26:12;26.75;;;12.07;;
25481;SDS011;13395;50.752;4.268;2022-12-19T00:28:43;26.73;;;11.95;;
25481;SDS011;13395;50.752;4.268;2022-12-19T00:31:11;31.00;;;12.25;;
25481;SDS011;13395;50.752;4.268;2022-12-19T00:33:37;30.00;;;12.80;;
25481;SDS011;13395;50.752;4.268;2022-12-19T00:36:04;32.72;;;13.00;;
25481;SDS011;13395;50.752;4.268;2022-12-19T00:38:32;24.55;;;11.98;;
25481;SDS011;13395;50.752;4.268;2022-12-19T00:41:05;24.48;;;11.90;;
25481;SDS011;13395;50.752;4.268;2022-12-19T00:43:31;22.05;;;11.90;;
25481;SDS011;13395;50.752;4.268;2022-12-19T00:45:57;28.50;;;12.57;;
25481;SDS011;13395;50.752;4.268;2022-12-19T00:48:25;30.00;;;13.40;;
25481;SDS011;13395;50.752;4.268;2022-12-19T00:50:57;25.67;;;12.60;;
25481;SDS011;13395;50.752;4.268;2022-12-19T00:53:26;21.23;;;10.73;;
25481;SDS011;13395;50.752;4.268;2022-12-19T00:55:52;29.85;;;13.30;;
25481;SDS011;13395;50.752;4.268;2022-12-19T00:58:18;24.45;;;12.20;;
25481;SDS011;13395;50.752;4.268;2022-12-19T01:00:44;23.33;;;11.38;;
25481;SDS011;13395;50.752;4.268;2022-12-19T01:03:10;24.70;;;12.60;;
25481;SDS011;13395;50.752;4.268;2022-12-19T01:05:35;35.38;;;11.90;;
25481;SDS011;13395;50.752;4.268;2022-12-19T01:08:01;21.40;;;10.05;;
25481;SDS011;13395;50.752;4.268;2022-12-19T01:10:27;19.40;;;9.65;;
25481;SDS011;13395;50.752;4.268;2022-12-19T01:12:53;21.88;;;11.30;;
25481;SDS011;13395;50.752;4.268;2022-12-19T01:15:19;21.42;;;9.77;;
25481;SDS011;13395;50.752;4.268;2022-12-19T01:17:45;21.58;;;10.88;;
25481;SDS011;13395;50.752;4.268;2022-12-19T01:20:12;21.63;;;10.05;;
25481;SDS011;13395;50.752;4.268;2022-12-19T01:22:43;19.02;;;9.98;;
25481;SDS011;13395;50.752;4.268;2022-12-19T01:25:09;19.98;;;10.07;;
25481;SDS011;13395;50.752;4.268;2022-12-19T01:27:35;19.85;;;9.20;;
25481;SDS011;13395;50.752;4.268;2022-12-19T01:30:01;14.27;;;8.98;;
25481;SDS011;13395;50.752;4.268;2022-12-19T01:32:28;18.65;;;9.68;;
25481;SDS011;13395;50.752;4.268;2022-12-19T01:34:54;18.83;;;10.30;;
25481;SDS011;13395;50.752;4.268;2022-12-19T01:37:19;23.08;;;10.10;;
25481;SDS011;13395;50.752;4.268;2022-12-19T01:39:45;18.35;;;9.68;;
25481;SDS011;13395;50.752;4.268;2022-12-19T01:42:15;22.77;;;10.70;;
25481;SDS011;13395;50.752;4.268;2022-12-19T01:47:26;17.95;;;10.23;;
25481;SDS011;13395;50.752;4.268;2022-12-19T01:49:53;21.35;;;9.55;;
25481;SDS011;13395;50.752;4.268;2022-12-19T01:52:19;14.35;;;7.00;;
25481;SDS011;13395;50.752;4.268;2022-12-19T01:54:45;17.02;;;9.68;;
25481;SDS011;13395;50.752;4.268;2022-12-19T01:57:12;17.50;;;9.93;;
25481;SDS011;13395;50.752;4.268;2022-12-19T01:59:46;20.80;;;10.23;;
25481;SDS011;13395;50.752;4.268;2022-12-19T02:02:28;16.25;;;8.55;;
25481;SDS011;13395;50.752;4.268;2022-12-19T02:04:58;18.20;;;10.65;;
25481;SDS011;13395;50.752;4.268;2022-12-19T02:07:25;16.27;;;9.48;;
25481;SDS011;13395;50.752;4.268;2022-12-19T02:09:54;15.20;;;10.10;;
25481;SDS011;13395;50.752;4.268;2022-12-19T02:12:21;17.60;;;9.68;;
25481;SDS011;13395;50.752;4.268;2022-12-19T02:14:50;22.20;;;11.02;;
25481;SDS011;13395;50.752;4.268;2022-12-19T02:17:21;17.77;;;8.40;;
25481;SDS011;13395;50.752;4.268;2022-12-19T02:30:59;20.00;;;9.60;;
25481;SDS011;13395;50.752;4.268;2022-12-19T02:36:14;21.92;;;10.30;;
25481;SDS011;13395;50.752;4.268;2022-12-19T02:38:56;14.07;;;9.10;;
25481;SDS011;13395;50.752;4.268;2022-12-19T02:41:30;19.17;;;10.68;;
25481;SDS011;13395;50.752;4.268;2022-12-19T02:44:07;15.90;;;10.25;;
25481;SDS011;13395;50.752;4.268;2022-12-19T02:46:41;17.70;;;10.88;;
25481;SDS011;13395;50.752;4.268;2022-12-19T02:49:09;19.17;;;11.05;;
25481;SDS011;13395;50.752;4.268;2022-12-19T02:51:36;16.75;;;9.60;;
25481;SDS011;13395;50.752;4.268;2022-12-19T02:54:02;15.18;;;8.90;;
25481;SDS011;13395;50.752;4.268;2022-12-19T02:56:38;20.50;;;10.77;;
25481;SDS011;13395;50.752;4.268;2022-12-19T03:00:30;17.30;;;11.02;;
25481;SDS011;13395;50.752;4.268;2022-12-19T03:16:01;15.48;;;9.43;;
25481;SDS011;13395;50.752;4.268;2022-12-19T03:18:30;15.77;;;8.75;;
25481;SDS011;13395;50.752;4.268;2022-12-19T03:21:10;16.65;;;9.50;;
25481;SDS011;13395;50.752;4.268;2022-12-19T03:23:47;18.42;;;9.13;;
25481;SDS011;13395;50.752;4.268;2022-12-19T03:26:19;18.25;;;10.70;;
25481;SDS011;13395;50.752;4.268;2022-12-19T03:28:47;16.23;;;9.15;;
25481;SDS011;13395;50.752;4.268;2022-12-19T03:31:17;16.65;;;9.15;;
25481;SDS011;13395;50.752;4.268;2022-12-19T03:33:45;13.95;;;8.80;;
25481;SDS011;13395;50.752;4.268;2022-12-19T03:36:15;20.52;;;11.02;;
25481;SDS011;13395;50.752;4.268;2022-12-19T03:38:45;16.58;;;8.57;;
25481;SDS011;13395;50.752;4.268;2022-12-19T03:41:13;13.75;;;9.32;;
25481;SDS011;13395;50.752;4.268;2022-12-19T03:43:41;15.52;;;9.98;;
25481;SDS011;13395;50.752;4.268;2022-12-19T03:46:12;15.27;;;8.57;;
25481;SDS011;13395;50.752;4.268;2022-12-19T03:48:45;16.48;;;8.60;;
25481;SDS011;13395;50.752;4.268;2022-12-19T03:56:40;15.27;;;9.50;;
25481;SDS011;13395;50.752;4.268;2022-12-19T04:02:00;11.13;;;6.80;;
25481;SDS011;13395;50.752;4.268;2022-12-19T04:04:27;11.18;;;6.32;;
25481;SDS011;13395;50.752;4.268;2022-12-19T04:06:54;13.73;;;8.32;;
25481;SDS011;13395;50.752;4.268;2022-12-19T04:09:21;13.27;;;8.10;;
25481;SDS011;13395;50.752;4.268;2022-12-19T04:11:52;15.40;;;8.10;;
25481;SDS011;13395;50.752;4.268;2022-12-19T04:14:26;10.98;;;7.55;;
25481;SDS011;13395;50.752;4.268;2022-12-19T04:16:56;14.68;;;8.43;;
25481;SDS011;13395;50.752;4.268;2022-12-19T04:19:50;10.32;;;7.55;;
25481;SDS011;13395;50.752;4.268;2022-12-19T04:22:25;12.15;;;7.47;;
25481;SDS011;13395;50.752;4.268;2022-12-19T04:25:07;14.40;;;7.45;;
25481;SDS011;13395;50.752;4.268;2022-12-19T04:27:38;12.43;;;8.02;;
25481;SDS011;13395;50.752;4.268;2022-12-19T04:30:11;16.05;;;8.40;;
25481;SDS011;13395;50.752;4.268;2022-12-19T04:32:41;11.75;;;8.55;;
25481;SDS011;13395;50.752;4.268;2022-12-19T04:35:08;13.32;;;7.72;;
25481;SDS011;13395;50.752;4.268;2022-12-19T04:37:33;11.68;;;7.28;;
25481;SDS011;13395;50.752;4.268;2022-12-19T04:39:59;12.45;;;7.93;;
25481;SDS011;13395;50.752;4.268;2022-12-19T04:42:25;11.80;;;7.00;;
25481;SDS011;13395;50.752;4.268;2022-12-19T04:44:50;12.25;;;7.20;;
25481;SDS011;13395;50.752;4.268;2022-12-19T04:47:16;11.32;;;6.93;;
25481;SDS011;13395;50.752;4.268;2022-12-19T04:49:43;12.85;;;7.72;;
25481;SDS011;13395;50.752;4.268;2022-12-19T04:52:08;12.27;;;8.40;;
25481;SDS011;13395;50.752;4.268;2022-12-19T04:54:34;15.60;;;7.60;;
25481;SDS011;13395;50.752;4.268;2022-12-19T04:56:59;12.60;;;8.32;;
25481;SDS011;13395;50.752;4.268;2022-12-19T04:59:25;10.43;;;7.07;;
25481;SDS011;13395;50.752;4.268;2022-12-19T05:01:51;13.30;;;7.30;;
25481;SDS011;13395;50.752;4.268;2022-12-19T05:04:16;9.75;;;6.82;;
25481;SDS011;13395;50.752;4.268;2022-12-19T05:06:42;10.52;;;6.93;;
25481;SDS011;13395;50.752;4.268;2022-12-19T05:09:09;11.27;;;6.93;;
25481;SDS011;13395;50.752;4.268;2022-12-19T05:11:35;12.55;;;7.32;;
25481;SDS011;13395;50.752;4.268;2022-12-19T05:14:01;10.82;;;7.28;;
25481;SDS011;13395;50.752;4.268;2022-12-19T05:16:26;16.58;;;7.72;;
25481;SDS011;13395;50.752;4.268;2022-12-19T05:18:52;14.65;;;6.63;;
25481;SDS011;13395;50.752;4.268;2022-12-19T05:21:18;11.52;;;7.38;;
25481;SDS011;13395;50.752;4.268;2022-12-19T05:23:45;8.98;;;6.15;;
25481;SDS011;13395;50.752;4.268;2022-12-19T05:26:11;11.85;;;6.78;;
25481;SDS011;13395;50.752;4.268;2022-12-19T05:28:36;10.18;;;6.32;;
25481;SDS011;13395;50.752;4.268;2022-12-19T05:31:03;12.50;;;7.10;;
25481;SDS011;13395;50.752;4.268;2022-12-19T05:33:40;10.93;;;6.68;;
25481;SDS011;13395;50.752;4.268;2022-12-19T05:36:07;9.52;;;5.50;;
25481;SDS011;13395;50.752;4.268;2022-12-19T05:38:33;10.73;;;6.03;;
25481;SDS011;13395;50.752;4.268;2022-12-19T05:41:04;10.15;;;5.20;;
25481;SDS011;13395;50.752;4.268;2022-12-19T05:43:31;9.00;;;5.95;;
25481;SDS011;13395;50.752;4.268;2022-12-19T05:45:57;9.18;;;6.82;;
25481;SDS011;13395;50.752;4.268;2022-12-19T05:48:22;7.35;;;5.22;;
25481;SDS011;13395;50.752;4.268;2022-12-19T05:50:48;9.27;;;5.72;;
25481;SDS011;13395;50.752;4.268;2022-12-19T05:53:15;11.45;;;6.70;;
25481;SDS011;13395;50.752;4.268;2022-12-19T05:55:41;10.75;;;5.70;;
25481;SDS011;13395;50.752;4.268;2022-12-19T05:58:07;9.07;;;6.18;;
25481;SDS011;13395;50.752;4.268;2022-12-19T06:00:32;8.38;;;5.95;;
25481;SDS011;13395;50.752;4.268;2022-12-19T06:02:58;9.10;;;5.65;;
25481;SDS011;13395;50.752;4.268;2022-12-19T06:05:23;9.82;;;6.13;;
25481;SDS011;13395;50.752;4.268;2022-12-19T06:07:49;9.90;;;5.32;;
25481;SDS011;13395;50.752;4.268;2022-12-19T06:10:15;10.18;;;5.70;;
25481;SDS011;13395;50.752;4.268;2022-12-19T06:12:40;7.90;;;6.00;;
25481;SDS011;13395;50.752;4.268;2022-12-19T06:15:06;10.98;;;6.40;;
25481;SDS011;13395;50.752;4.268;2022-12-19T06:17:32;10.45;;;6.32;;
25481;SDS011;13395;50.752;4.268;2022-12-19T06:19:58;7.80;;;5.22;;
25481;SDS011;13395;50.752;4.268;2022-12-19T06:22:24;8.57;;;5.78;;
25481;SDS011;13395;50.752;4.268;2022-12-19T06:24:49;10.77;;;6.30;;
25481;SDS011;13395;50.752;4.268;2022-12-19T06:27:15;6.70;;;5.32;;
25481;SDS011;13395;50.752;4.268;2022-12-19T06:29:40;8.50;;;5.82;;
25481;SDS011;13395;50.752;4.268;2022-12-19T06:32:06;9.98;;;5.70;;
25481;SDS011;13395;50.752;4.268;2022-12-19T06:34:32;8.23;;;5.65;;
25481;SDS011;13395;50.752;4.268;2022-12-19T06:36:57;9.20;;;5.45;;
25481;SDS011;13395;50.752;4.268;2022-12-19T06:39:23;10.25;;;5.65;;
25481;SDS011;13395;50.752;4.268;2022-12-19T06:41:48;8.25;;;5.10;;
25481;SDS011;13395;50.752;4.268;2022-12-19T06:44:33;9.25;;;5.28;;
25481;SDS011;13395;50.752;4.268;2022-12-19T06:46:58;6.85;;;4.40;;
25481;SDS011;13395;50.752;4.268;2022-12-19T06:49:24;6.30;;;4.47;;
25481;SDS011;13395;50.752;4.268;2022-12-19T06:51:49;5.97;;;4.20;;
25481;SDS011;13395;50.752;4.268;2022-12-19T06:54:15;7.70;;;5.25;;
25481;SDS011;13395;50.752;4.268;2022-12-19T06:56:41;7.00;;;4.43;;
25481;SDS011;13395;50.752;4.268;2022-12-19T06:59:11;8.75;;;4.50;;
25481;SDS011;13395;50.752;4.268;2022-12-19T07:04:28;8.82;;;5.22;;
25481;SDS011;13395;50.752;4.268;2022-12-19T07:06:57;9.00;;;5.00;;
25481;SDS011;13395;50.752;4.268;2022-12-19T07:09:24;9.07;;;5.03;;
25481;SDS011;13395;50.752;4.268;2022-12-19T07:11:51;7.05;;;4.90;;
25481;SDS011;13395;50.752;4.268;2022-12-19T07:14:16;5.85;;;3.78;;
25481;SDS011;13395;50.752;4.268;2022-12-19T07:16:43;6.63;;;4.68;;
25481;SDS011;13395;50.752;4.268;2022-12-19T07:19:09;8.43;;;4.70;;
25481;SDS011;13395;50.752;4.268;2022-12-19T07:21:35;9.00;;;4.95;;
25481;SDS011;13395;50.752;4.268;2022-12-19T07:24:01;12.10;;;5.60;;
25481;SDS011;13395;50.752;4.268;2022-12-19T07:26:27;8.20;;;4.88;;
25481;SDS011;13395;50.752;4.268;2022-12-19T07:28:53;8.48;;;4.50;;
25481;SDS011;13395;50.752;4.268;2022-12-19T07:31:19;7.03;;;4.63;;
25481;SDS011;13395;50.752;4.268;2022-12-19T07:33:45;11.02;;;4.07;;
25481;SDS011;13395;50.752;4.268;2022-12-19T07:36:10;6.07;;;3.92;;
25481;SDS011;13395;50.752;4.268;2022-12-19T07:38:36;4.78;;;3.83;;
25481;SDS011;13395;50.752;4.268;2022-12-19T07:41:02;8.60;;;4.40;;
25481;SDS011;13395;50.752;4.268;2022-12-19T07:43:28;6.93;;;4.28;;
25481;SDS011;13395;50.752;4.268;2022-12-19T07:45:54;7.90;;;5.05;;
25481;SDS011;13395;50.752;4.268;2022-12-19T07:48:20;6.25;;;3.88;;
25481;SDS011;13395;50.752;4.268;2022-12-19T07:50:47;8.32;;;4.07;;
25481;SDS011;13395;50.752;4.268;2022-12-19T07:53:13;6.22;;;3.63;;
25481;SDS011;13395;50.752;4.268;2022-12-19T07:55:39;9.52;;;4.68;;
25481;SDS011;13395;50.752;4.268;2022-12-19T07:58:05;10.23;;;3.85;;
25481;SDS011;13395;50.752;4.268;2022-12-19T08:00:31;7.05;;;4.32;;
25481;SDS011;13395;50.752;4.268;2022-12-19T08:02:57;7.57;;;4.53;;
25481;SDS011;13395;50.752;4.268;2022-12-19T08:05:23;6.18;;;4.28;;
25481;SDS011;13395;50.752;4.268;2022-12-19T08:07:49;6.18;;;4.80;;
25481;SDS011;13395;50.752;4.268;2022-12-19T08:10:15;8.38;;;3.72;;
25481;SDS011;13395;50.752;4.268;2022-12-19T08:12:40;6.25;;;3.88;;
25481;SDS011;13395;50.752;4.268;2022-12-19T08:15:06;6.32;;;4.18;;
25481;SDS011;13395;50.752;4.268;2022-12-19T08:17:32;8.77;;;4.13;;
25481;SDS011;13395;50.752;4.268;2022-12-19T08:19:57;4.95;;;3.88;;
25481;SDS011;13395;50.752;4.268;2022-12-19T08:22:23;6.10;;;4.30;;
25481;SDS011;13395;50.752;4.268;2022-12-19T08:24:49;6.43;;;3.72;;
25481;SDS011;13395;50.752;4.268;2022-12-19T08:27:15;6.70;;;4.95;;
25481;SDS011;13395;50.752;4.268;2022-12-19T08:29:41;6.45;;;4.00;;
25481;SDS011;13395;50.752;4.268;2022-12-19T08:32:06;8.82;;;4.38;;
25481;SDS011;13395;50.752;4.268;2022-12-19T08:34:32;5.90;;;3.58;;
25481;SDS011;13395;50.752;4.268;2022-12-19T08:36:58;5.10;;;3.65;;
25481;SDS011;13395;50.752;4.268;2022-12-19T08:39:23;7.68;;;4.50;;
25481;SDS011;13395;50.752;4.268;2022-12-19T08:41:49;8.30;;;4.85;;
25481;SDS011;13395;50.752;4.268;2022-12-19T08:44:14;12.60;;;7.88;;
25481;SDS011;13395;50.752;4.268;2022-12-19T08:46:40;9.75;;;7.63;;
25481;SDS011;13395;50.752;4.268;2022-12-19T08:49:05;7.88;;;3.50;;
25481;SDS011;13395;50.752;4.268;2022-12-19T08:51:31;4.25;;;3.20;;
25481;SDS011;13395;50.752;4.268;2022-12-19T08:53:57;8.40;;;4.82;;
25481;SDS011;13395;50.752;4.268;2022-12-19T08:56:22;5.40;;;3.80;;
25481;SDS011;13395;50.752;4.268;2022-12-19T08:58:50;6.93;;;3.75;;
25481;SDS011;13395;50.752;4.268;2022-12-19T09:01:16;9.80;;;4.05;;
25481;SDS011;13395;50.752;4.268;2022-12-19T09:03:43;5.28;;;4.18;;
25481;SDS011;13395;50.752;4.268;2022-12-19T09:06:10;6.40;;;3.33;;
25481;SDS011;13395;50.752;4.268;2022-12-19T09:08:36;18.42;;;9.00;;
25481;SDS011;13395;50.752;4.268;2022-12-19T09:11:04;6.00;;;4.40;;
25481;SDS011;13395;50.752;4.268;2022-12-19T09:13:33;8.88;;;4.38;;
25481;SDS011;13395;50.752;4.268;2022-12-19T09:16:03;8.27;;;4.40;;
25481;SDS011;13395;50.752;4.268;2022-12-19T09:18:31;6.95;;;5.38;;
25481;SDS011;13395;50.752;4.268;2022-12-19T09:20:57;6.57;;;3.58;;
25481;SDS011;13395;50.752;4.268;2022-12-19T09:23:24;7.90;;;5.93;;
25481;SDS011;13395;50.752;4.268;2022-12-19T09:25:53;9.32;;;5.18;;
25481;SDS011;13395;50.752;4.268;2022-12-19T09:28:19;7.32;;;4.55;;
25481;SDS011;13395;50.752;4.268;2022-12-19T09:30:52;6.05;;;3.95;;
25481;SDS011;13395;50.752;4.268;2022-12-19T09:33:22;7.38;;;4.47;;
25481;SDS011;13395;50.752;4.268;2022-12-19T09:35:51;5.18;;;4.25;;
25481;SDS011;13395;50.752;4.268;2022-12-19T09:38:18;7.60;;;4.18;;
25481;SDS011;13395;50.752;4.268;2022-12-19T09:40:51;6.20;;;4.60;;
25481;SDS011;13395;50.752;4.268;2022-12-19T09:43:35;6.65;;;4.28;;
25481;SDS011;13395;50.752;4.268;2022-12-19T09:46:19;8.40;;;4.05;;
25481;SDS011;13395;50.752;4.268;2022-12-19T09:48:52;8.13;;;4.72;;
25481;SDS011;13395;50.752;4.268;2022-12-19T09:51:33;6.40;;;4.05;;
25481;SDS011;13395;50.752;4.268;2022-12-19T09:56:31;6.93;;;3.80;;
25481;SDS011;13395;50.752;4.268;2022-12-19T09:59:48;8.82;;;4.32;;
25481;SDS011;13395;50.752;4.268;2022-12-19T10:01:59;6.32;;;2.97;;
25481;SDS011;13395;50.752;4.268;2022-12-19T10:04:29;5.43;;;3.40;;
25481;SDS011;13395;50.752;4.268;2022-12-19T10:06:59;4.55;;;3.03;;
25481;SDS011;13395;50.752;4.268;2022-12-19T10:09:29;3.88;;;2.58;;
25481;SDS011;13395;50.752;4.268;2022-12-19T10:12:05;5.20;;;3.45;;
25481;SDS011;13395;50.752;4.268;2022-12-19T10:20:12;4.88;;;2.85;;
25481;SDS011;13395;50.752;4.268;2022-12-19T10:26:01;4.15;;;3.10;;
25481;SDS011;13395;50.752;4.268;2022-12-19T10:31:44;5.50;;;2.83;;
25481;SDS011;13395;50.752;4.268;2022-12-19T10:34:34;4.85;;;3.00;;
25481;SDS011;13395;50.752;4.268;2022-12-19T10:37:14;4.68;;;2.53;;
25481;SDS011;13395;50.752;4.268;2022-12-19T10:42:58;9.95;;;2.53;;
25481;SDS011;13395;50.752;4.268;2022-12-19T10:45:32;4.22;;;2.45;;
25481;SDS011;13395;50.752;4.268;2022-12-19T10:48:02;4.00;;;2.75;;
25481;SDS011;13395;50.752;4.268;2022-12-19T10:50:29;6.05;;;2.25;;
25481;SDS011;13395;50.752;4.268;2022-12-19T10:55:46;6.32;;;3.50;;
25481;SDS011;13395;50.752;4.268;2022-12-19T11:01:02;4.85;;;2.45;;
25481;SDS011;13395;50.752;4.268;2022-12-19T11:03:36;5.32;;;2.60;;
25481;SDS011;13395;50.752;4.268;2022-12-19T11:06:04;3.33;;;2.20;;
25481;SDS011;13395;50.752;4.268;2022-12-19T11:13:45;8.02;;;3.17;;
25481;SDS011;13395;50.752;4.268;2022-12-19T11:16:12;4.97;;;2.47;;
25481;SDS011;13395;50.752;4.268;2022-12-19T11:18:46;4.20;;;1.90;;
25481;SDS011;13395;50.752;4.268;2022-12-19T11:23:45;5.43;;;1.98;;
25481;SDS011;13395;50.752;4.268;2022-12-19T11:29:20;3.17;;;2.30;;
25481;SDS011;13395;50.752;4.268;2022-12-19T11:32:35;5.88;;;2.45;;
25481;SDS011;13395;50.752;4.268;2022-12-19T11:35:04;6.55;;;3.38;;
25481;SDS011;13395;50.752;4.268;2022-12-19T11:37:43;5.97;;;2.78;;
25481;SDS011;13395;50.752;4.268;2022-12-19T11:43:12;5.40;;;3.03;;
25481;SDS011;13395;50.752;4.268;2022-12-19T11:48:47;9.40;;;3.65;;
25481;SDS011;13395;50.752;4.268;2022-12-19T11:54:01;20.13;;;8.38;;
25481;SDS011;13395;50.752;4.268;2022-12-19T11:56:34;19.08;;;7.07;;
25481;SDS011;13395;50.752;4.268;2022-12-19T11:59:01;8.15;;;4.30;;
25481;SDS011;13395;50.752;4.268;2022-12-19T12:01:40;14.48;;;6.97;;
25481;SDS011;13395;50.752;4.268;2022-12-19T12:04:29;3.35;;;2.40;;
25481;SDS011;13395;50.752;4.268;2022-12-19T12:07:06;6.88;;;3.15;;
25481;SDS011;13395;50.752;4.268;2022-12-19T12:09:43;3.88;;;1.98;;
25481;SDS011;13395;50.752;4.268;2022-12-19T12:23:32;4.80;;;2.58;;
25481;SDS011;13395;50.752;4.268;2022-12-19T12:26:24;4.72;;;2.78;;
25481;SDS011;13395;50.752;4.268;2022-12-19T12:37:13;4.53;;;3.08;;
25481;SDS011;13395;50.752;4.268;2022-12-19T12:45:26;4.85;;;2.63;;
25481;SDS011;13395;50.752;4.268;2022-12-19T12:48:16;4.10;;;3.17;;
25481;SDS011;13395;50.752;4.268;2022-12-19T12:50:53;5.18;;;2.75;;
25481;SDS011;13395;50.752;4.268;2022-12-19T12:53:23;5.05;;;3.60;;
25481;SDS011;13395;50.752;4.268;2022-12-19T12:55:56;4.38;;;2.53;;
25481;SDS011;13395;50.752;4.268;2022-12-19T13:06:59;5.03;;;2.40;;
25481;SDS011;13395;50.752;4.268;2022-12-19T13:10:26;5.93;;;3.08;;
25481;SDS011;13395;50.752;4.268;2022-12-19T13:39:28;5.72;;;3.25;;
25481;SDS011;13395;50.752;4.268;2022-12-19T13:42:15;28.73;;;10.90;;
25481;SDS011;13395;50.752;4.268;2022-12-19T13:45:04;4.85;;;2.70;;
25481;SDS011;13395;50.752;4.268;2022-12-19T13:47:53;3.85;;;2.28;;
25481;SDS011;13395;50.752;4.268;2022-12-19T13:50:27;4.40;;;2.83;;
25481;SDS011;13395;50.752;4.268;2022-12-19T13:52:56;4.00;;;2.17;;
25481;SDS011;13395;50.752;4.268;2022-12-19T13:55:22;4.20;;;2.33;;
25481;SDS011;13395;50.752;4.268;2022-12-19T13:57:52;5.20;;;2.20;;
25481;SDS011;13395;50.752;4.268;2022-12-19T14:00:20;4.50;;;2.45;;
25481;SDS011;13395;50.752;4.268;2022-12-19T14:02:54;4.57;;;2.53;;
25481;SDS011;13395;50.752;4.268;2022-12-19T14:07:54;4.35;;;2.50;;
25481;SDS011;13395;50.752;4.268;2022-12-19T14:10:22;3.45;;;2.38;;
25481;SDS011;13395;50.752;4.268;2022-12-19T14:12:53;4.55;;;2.78;;
25481;SDS011;13395;50.752;4.268;2022-12-19T14:15:43;4.97;;;2.63;;
25481;SDS011;13395;50.752;4.268;2022-12-19T14:20:40;3.83;;;2.13;;
25481;SDS011;13395;50.752;4.268;2022-12-19T14:23:06;5.32;;;2.70;;
25481;SDS011;13395;50.752;4.268;2022-12-19T14:28:16;4.63;;;2.58;;
25481;SDS011;13395;50.752;4.268;2022-12-19T14:30:46;3.45;;;2.35;;
25481;SDS011;13395;50.752;4.268;2022-12-19T14:33:25;4.10;;;2.80;;
25481;SDS011;13395;50.752;4.268;2022-12-19T14:35:58;3.80;;;2.40;;
25481;SDS011;13395;50.752;4.268;2022-12-19T14:38:25;3.75;;;2.10;;
25481;SDS011;13395;50.752;4.268;2022-12-19T14:40:56;2.53;;;2.28;;
25481;SDS011;13395;50.752;4.268;2022-12-19T14:43:23;5.10;;;2.55;;
25481;SDS011;13395;50.752;4.268;2022-12-19T14:48:48;2.78;;;2.13;;
25481;SDS011;13395;50.752;4.268;2022-12-19T14:51:18;6.93;;;2.90;;
25481;SDS011;13395;50.752;4.268;2022-12-19T14:56:50;6.13;;;2.85;;
25481;SDS011;13395;50.752;4.268;2022-12-19T14:59:28;4.55;;;2.65;;
25481;SDS011;13395;50.752;4.268;2022-12-19T15:02:00;6.38;;;2.47;;
25481;SDS011;13395;50.752;4.268;2022-12-19T15:04:37;2.92;;;2.28;;
25481;SDS011;13395;50.752;4.268;2022-12-19T15:07:07;5.55;;;2.50;;
25481;SDS011;13395;50.752;4.268;2022-12-19T15:12:30;4.73;;;2.93;;
25481;SDS011;13395;50.752;4.268;2022-12-19T15:20:43;4.63;;;2.90;;
25481;SDS011;13395;50.752;4.268;2022-12-19T15:23:08;4.97;;;2.83;;
25481;SDS011;13395;50.752;4.268;2022-12-19T15:25:34;4.38;;;2.80;;
25481;SDS011;13395;50.752;4.268;2022-12-19T15:28:00;5.82;;;2.30;;
25481;SDS011;13395;50.752;4.268;2022-12-19T15:30:25;3.17;;;2.35;;
25481;SDS011;13395;50.752;4.268;2022-12-19T15:32:54;5.47;;;3.10;;
25481;SDS011;13395;50.752;4.268;2022-12-19T15:35:19;11.85;;;5.70;;
25481;SDS011;13395;50.752;4.268;2022-12-19T15:37:45;3.25;;;2.72;;
25481;SDS011;13395;50.752;4.268;2022-12-19T15:40:14;14.27;;;4.22;;
25481;SDS011;13395;50.752;4.268;2022-12-19T15:42:45;5.50;;;3.33;;
25481;SDS011;13395;50.752;4.268;2022-12-19T15:45:20;6.20;;;3.47;;
25481;SDS011;13395;50.752;4.268;2022-12-19T15:47:46;7.22;;;3.33;;
25481;SDS011;13395;50.752;4.268;2022-12-19T15:50:22;8.68;;;3.80;;
25481;SDS011;13395;50.752;4.268;2022-12-19T15:52:54;7.10;;;4.40;;
25481;SDS011;13395;50.752;4.268;2022-12-19T15:55:21;6.85;;;3.50;;
25481;SDS011;13395;50.752;4.268;2022-12-19T15:57:51;5.82;;;3.25;;
25481;SDS011;13395;50.752;4.268;2022-12-19T16:00:23;5.38;;;4.03;;
25481;SDS011;13395;50.752;4.268;2022-12-19T16:02:52;6.05;;;3.03;;
25481;SDS011;13395;50.752;4.268;2022-12-19T16:05:19;8.20;;;4.50;;
25481;SDS011;13395;50.752;4.268;2022-12-19T16:07:47;8.18;;;3.97;;
25481;SDS011;13395;50.752;4.268;2022-12-19T16:10:13;6.65;;;3.20;;
25481;SDS011;13395;50.752;4.268;2022-12-19T16:12:40;5.32;;;2.90;;
25481;SDS011;13395;50.752;4.268;2022-12-19T16:15:13;7.38;;;2.90;;
25481;SDS011;13395;50.752;4.268;2022-12-19T16:17:42;4.38;;;2.60;;
25481;SDS011;13395;50.752;4.268;2022-12-19T16:20:15;4.18;;;2.70;;
25481;SDS011;13395;50.752;4.268;2022-12-19T16:22:45;6.47;;;4.28;;
25481;SDS011;13395;50.752;4.268;2022-12-19T16:25:12;5.47;;;2.88;;
25481;SDS011;13395;50.752;4.268;2022-12-19T16:27:38;20.33;;;7.35;;
25481;SDS011;13395;50.752;4.268;2022-12-19T16:30:14;7.50;;;3.92;;
25481;SDS011;13395;50.752;4.268;2022-12-19T16:32:51;5.78;;;3.08;;
25481;SDS011;13395;50.752;4.268;2022-12-19T16:35:18;6.20;;;3.40;;
25481;SDS011;13395;50.752;4.268;2022-12-19T16:37:46;6.30;;;3.20;;
25481;SDS011;13395;50.752;4.268;2022-12-19T16:40:13;5.47;;;2.55;;
25481;SDS011;13395;50.752;4.268;2022-12-19T16:42:40;5.07;;;3.40;;
25481;SDS011;13395;50.752;4.268;2022-12-19T16:45:14;7.28;;;3.80;;
25481;SDS011;13395;50.752;4.268;2022-12-19T16:47:40;6.47;;;3.58;;
25481;SDS011;13395;50.752;4.268;2022-12-19T16:50:11;6.13;;;3.08;;
25481;SDS011;13395;50.752;4.268;2022-12-19T16:52:40;5.53;;;2.55;;
25481;SDS011;13395;50.752;4.268;2022-12-19T16:55:06;5.53;;;3.42;;
25481;SDS011;13395;50.752;4.268;2022-12-19T16:57:31;5.55;;;3.25;;
25481;SDS011;13395;50.752;4.268;2022-12-19T16:59:57;3.22;;;2.85;;
25481;SDS011;13395;50.752;4.268;2022-12-19T17:05:22;3.97;;;2.58;;
25481;SDS011;13395;50.752;4.268;2022-12-19T17:07:53;7.32;;;3.50;;
25481;SDS011;13395;50.752;4.268;2022-12-19T17:10:21;7.10;;;3.08;;
25481;SDS011;13395;50.752;4.268;2022-12-19T17:12:51;5.25;;;3.53;;
25481;SDS011;13395;50.752;4.268;2022-12-19T17:15:25;4.57;;;2.35;;
25481;SDS011;13395;50.752;4.268;2022-12-19T17:17:58;5.03;;;2.97;;
25481;SDS011;13395;50.752;4.268;2022-12-19T17:20:27;12.38;;;4.90;;
25481;SDS011;13395;50.752;4.268;2022-12-19T17:22:59;4.78;;;3.20;;
25481;SDS011;13395;50.752;4.268;2022-12-19T17:25:26;5.47;;;3.15;;
25481;SDS011;13395;50.752;4.268;2022-12-19T17:27:52;7.47;;;4.00;;
25481;SDS011;13395;50.752;4.268;2022-12-19T17:30:19;8.52;;;3.60;;
25481;SDS011;13395;50.752;4.268;2022-12-19T17:32:47;6.50;;;3.08;;
25481;SDS011;13395;50.752;4.268;2022-12-19T17:35:21;8.95;;;4.65;;
25481;SDS011;13395;50.752;4.268;2022-12-19T17:37:51;7.15;;;3.40;;
25481;SDS011;13395;50.752;4.268;2022-12-19T17:40:19;5.18;;;2.45;;
25481;SDS011;13395;50.752;4.268;2022-12-19T17:42:46;4.30;;;2.53;;
25481;SDS011;13395;50.752;4.268;2022-12-19T17:45:13;3.72;;;2.88;;